createdAt,value
2023-04-05T00:01:56.091Z,8.07
2023-04-05T00:04:24.825Z,8.00
2023-04-05T00:06:53.953Z,6.80
2023-04-05T00:09:22.413Z,6.67
2023-04-05T00:11:50.642Z,6.33
2023-04-05T00:14:20.230Z,7.03
2023-04-05T00:16:48.501Z,7.53
2023-04-05T00:19:16.765Z,7.17
2023-04-05T00:21:44.938Z,7.40
2023-04-05T00:24:15.459Z,8.73
2023-04-05T00:26:45.024Z,9.87
2023-04-05T00:29:13.200Z,6.23
2023-04-05T00:31:42.752Z,7.97
2023-04-05T00:34:12.437Z,8.00
2023-04-05T00:36:40.699Z,6.90
2023-04-05T00:39:08.848Z,6.63
2023-04-05T00:41:37.168Z,9.30
2023-04-05T00:44:05.798Z,8.13
2023-04-05T00:46:36.444Z,4.30
2023-04-05T00:49:06.509Z,9.07
2023-04-05T00:51:35.293Z,7.73
2023-04-05T00:54:03.624Z,6.70
2023-04-05T00:56:32.929Z,10.57
2023-04-05T00:59:01.694Z,8.23
2023-04-05T01:01:30.856Z,11.43
2023-04-05T01:04:02.611Z,8.07
2023-04-05T01:06:39.007Z,11.03
2023-04-05T01:09:10.949Z,7.40
2023-04-05T01:11:40.246Z,8.57
2023-04-05T01:14:08.406Z,8.03
2023-04-05T01:16:36.780Z,7.13
2023-04-05T01:19:05.231Z,6.20
2023-04-05T01:22:13.664Z,7.50
2023-04-05T01:24:50.831Z,5.47
2023-04-05T01:27:21.958Z,7.23
2023-04-05T01:29:55.044Z,9.03
2023-04-05T01:32:26.976Z,10.13
2023-04-05T01:34:57.971Z,6.60
2023-04-05T01:37:28.463Z,7.47
2023-04-05T01:39:57.027Z,6.77
2023-04-05T01:42:26.182Z,7.37
2023-04-05T01:44:56.336Z,8.20
2023-04-05T01:47:24.545Z,7.03
2023-04-05T01:49:52.797Z,8.90
2023-04-05T01:52:20.974Z,13.33
2023-04-05T01:54:49.197Z,7.13
2023-04-05T01:57:17.463Z,5.10
2023-04-05T01:59:45.594Z,6.00
2023-04-05T02:02:15.092Z,7.43
2023-04-05T02:04:43.388Z,7.00
2023-04-05T02:07:11.630Z,6.23
2023-04-05T02:09:39.758Z,8.57
2023-04-05T02:12:07.913Z,5.97
2023-04-05T02:14:36.322Z,6.17
2023-04-05T02:17:04.484Z,6.90
2023-04-05T02:19:41.035Z,6.53
2023-04-05T02:22:09.453Z,6.40
2023-04-05T02:24:37.612Z,8.97
2023-04-05T02:27:05.812Z,6.00
2023-04-05T02:29:34.740Z,6.30
2023-04-05T02:32:03.102Z,10.97
2023-04-05T02:34:31.697Z,8.17
2023-04-05T02:37:01.886Z,6.87
2023-04-05T02:39:30.570Z,8.90
2023-04-05T02:41:59.054Z,7.20
2023-04-05T02:44:27.271Z,8.57
2023-04-05T02:46:55.802Z,8.83
2023-04-05T02:49:23.959Z,8.67
2023-04-05T02:51:52.118Z,8.33
2023-04-05T02:54:21.687Z,7.47
2023-04-05T02:56:49.991Z,8.13
2023-04-05T02:59:18.576Z,6.47
2023-04-05T03:01:46.770Z,9.70
2023-04-05T03:04:17.182Z,7.90
2023-04-05T03:06:48.610Z,6.53
2023-04-05T03:09:16.828Z,10.00
2023-04-05T03:11:46.335Z,7.60
2023-04-05T03:14:14.514Z,6.53
2023-04-05T03:16:42.777Z,11.40
2023-04-05T03:19:10.953Z,8.03
2023-04-05T03:21:39.744Z,7.97
2023-04-05T03:24:09.244Z,8.13
2023-04-05T03:26:37.456Z,8.77
2023-04-05T03:29:06.996Z,6.40
2023-04-05T03:31:35.247Z,6.33
2023-04-05T03:34:03.442Z,7.27
2023-04-05T03:36:42.160Z,8.30
2023-04-05T03:39:10.563Z,5.43
2023-04-05T03:41:38.972Z,9.93
2023-04-05T03:44:08.632Z,7.40
2023-04-05T03:46:37.891Z,9.30
2023-04-05T03:49:06.224Z,9.67
2023-04-05T03:51:34.406Z,6.97
2023-04-05T03:54:02.553Z,8.07
2023-04-05T03:56:30.740Z,6.43
2023-04-05T03:58:59.036Z,10.00
2023-04-05T04:01:28.560Z,13.07
2023-04-05T04:03:56.714Z,8.47
2023-04-05T04:06:26.717Z,10.87
2023-04-05T04:08:54.966Z,7.90
2023-04-05T04:11:23.124Z,16.17
2023-04-05T04:13:51.744Z,5.53
2023-04-05T04:16:19.950Z,8.13
2023-04-05T04:18:49.466Z,8.13
2023-04-05T04:21:19.168Z,7.83
2023-04-05T04:23:47.393Z,8.27
2023-04-05T04:26:15.540Z,9.23
2023-04-05T04:28:44.687Z,7.47
2023-04-05T04:31:14.471Z,10.83
2023-04-05T04:33:43.655Z,13.53
2023-04-05T04:36:14.320Z,7.57
2023-04-05T04:38:44.255Z,7.57
2023-04-05T04:41:12.489Z,14.63
2023-04-05T04:43:43.734Z,11.47
2023-04-05T04:46:14.902Z,8.40
2023-04-05T04:48:43.436Z,8.53
2023-04-05T04:51:12.948Z,7.63
2023-04-05T04:53:41.210Z,10.37
2023-04-05T04:56:09.683Z,11.00
2023-04-05T04:58:37.928Z,12.37
2023-04-05T05:01:09.872Z,7.83
2023-04-05T05:03:38.631Z,12.00
2023-04-05T05:06:07.060Z,11.87
2023-04-05T05:08:37.184Z,12.33
2023-04-05T05:11:08.005Z,11.43
2023-04-05T05:13:36.491Z,9.67
2023-04-05T05:16:05.531Z,9.63
2023-04-05T05:18:33.704Z,8.33
2023-04-05T05:21:01.900Z,11.63
2023-04-05T05:23:30.073Z,10.00
2023-04-05T05:26:00.880Z,7.50
2023-04-05T05:28:29.172Z,8.17
2023-04-05T05:30:57.439Z,6.50
2023-04-05T05:33:26.430Z,10.03
2023-04-05T05:35:54.637Z,8.83
2023-04-05T05:38:23.560Z,7.43
2023-04-05T05:40:56.804Z,7.60
2023-04-05T05:43:26.403Z,6.33
2023-04-05T05:45:54.623Z,7.67
2023-04-05T05:48:22.776Z,10.50
2023-04-05T05:50:51.025Z,10.63
2023-04-05T05:53:19.217Z,8.33
2023-04-05T05:55:47.628Z,6.67
2023-04-05T05:58:15.878Z,9.63
2023-04-05T06:00:49.138Z,5.13
2023-04-05T06:03:19.197Z,8.53
2023-04-05T06:05:52.397Z,9.23
2023-04-05T06:08:20.564Z,9.40
2023-04-05T06:10:48.710Z,7.03
2023-04-05T06:13:16.909Z,5.57
2023-04-05T06:15:46.488Z,9.07
2023-04-05T06:18:14.753Z,5.83
2023-04-05T06:20:44.670Z,6.57
2023-04-05T06:23:13.195Z,8.93
2023-04-05T06:25:41.622Z,6.10
2023-04-05T06:28:09.769Z,6.70
2023-04-05T06:30:37.987Z,8.27
2023-04-05T06:33:07.603Z,6.93
2023-04-05T06:35:35.914Z,5.67
2023-04-05T06:38:04.112Z,9.60
2023-04-05T06:40:32.250Z,7.57
2023-04-05T06:43:03.089Z,8.57
2023-04-05T06:45:31.398Z,9.27
2023-04-05T06:48:07.484Z,7.40
2023-04-05T06:50:37.070Z,9.23
2023-04-05T06:53:05.595Z,10.20
2023-04-05T06:55:33.952Z,6.70
2023-04-05T06:58:02.113Z,7.47
2023-04-05T07:00:30.844Z,10.40
2023-04-05T07:02:59.039Z,7.63
2023-04-05T07:05:27.344Z,9.37
2023-04-05T07:07:56.968Z,7.67
2023-04-05T07:10:25.201Z,7.47
2023-04-05T07:12:53.433Z,7.83
2023-04-05T07:15:21.574Z,10.73
2023-04-05T07:17:49.790Z,7.83
2023-04-05T07:20:17.921Z,7.93
2023-04-05T07:22:46.105Z,11.10
2023-04-05T07:25:15.882Z,9.17
2023-04-05T07:27:44.106Z,7.67
2023-04-05T07:30:15.020Z,10.17
2023-04-05T07:32:43.298Z,10.03
2023-04-05T07:35:11.763Z,7.27
2023-04-05T07:37:39.902Z,6.80
2023-04-05T07:40:10.829Z,10.33
2023-04-05T07:42:40.804Z,7.77
2023-04-05T07:45:09.621Z,9.07
2023-04-05T07:47:37.874Z,11.33
2023-04-05T07:50:07.081Z,10.27
2023-04-05T07:52:35.304Z,10.77
2023-04-05T07:55:03.611Z,10.27
2023-04-05T07:57:31.788Z,13.57
2023-04-05T08:00:01.279Z,8.90
2023-04-05T08:02:29.505Z,6.77
2023-04-05T08:04:57.754Z,7.47
2023-04-05T08:07:25.915Z,6.77
2023-04-05T08:09:57.463Z,6.83
2023-04-05T08:12:25.936Z,6.73
2023-04-05T08:14:54.132Z,5.30
2023-04-05T08:17:23.710Z,9.03
2023-04-05T08:19:52.601Z,12.70
2023-04-05T08:22:21.030Z,8.87
2023-04-05T08:24:49.263Z,7.23
2023-04-05T08:27:18.561Z,8.83
2023-04-05T08:29:46.749Z,7.07
2023-04-05T08:32:14.960Z,7.87
2023-04-05T08:34:44.483Z,7.60
2023-04-05T08:37:12.700Z,8.17
2023-04-05T08:39:41.016Z,6.83
2023-04-05T08:42:13.238Z,6.80
2023-04-05T08:44:41.763Z,6.90
2023-04-05T08:47:14.974Z,5.60
2023-04-05T08:49:45.898Z,6.83
2023-04-05T08:52:14.151Z,9.03
2023-04-05T08:54:42.669Z,7.73
2023-04-05T08:57:11.328Z,7.73
2023-04-05T08:59:40.736Z,7.03
2023-04-05T09:02:12.463Z,9.40
2023-04-05T09:04:44.608Z,8.30
2023-04-05T09:07:15.427Z,8.00
2023-04-05T09:09:45.905Z,6.77
2023-04-05T09:12:14.115Z,8.27
2023-04-05T09:14:42.912Z,8.37
2023-04-05T09:17:11.518Z,9.27
2023-04-05T09:19:39.836Z,6.17
2023-04-05T09:22:09.712Z,7.00
2023-04-05T09:24:41.855Z,6.40
2023-04-05T09:27:11.032Z,8.00
2023-04-05T09:29:39.599Z,7.83
2023-04-05T09:32:08.343Z,6.57
2023-04-05T09:34:37.683Z,7.27
2023-04-05T09:37:14.210Z,6.70
2023-04-05T09:39:44.118Z,9.70
2023-04-05T09:42:13.222Z,15.13
2023-04-05T09:44:51.131Z,7.00
2023-04-05T09:47:19.718Z,6.10
2023-04-05T09:49:47.944Z,7.93
2023-04-05T09:52:20.063Z,8.40
2023-04-05T09:54:49.816Z,9.03
2023-04-05T09:57:19.184Z,8.07
2023-04-05T09:59:47.876Z,7.17
2023-04-05T10:02:16.367Z,8.93
2023-04-05T10:04:45.381Z,6.13
2023-04-05T10:07:14.539Z,6.57
2023-04-05T10:09:43.946Z,7.23
2023-04-05T10:12:15.507Z,9.53
2023-04-05T10:14:43.762Z,9.00
2023-04-05T10:17:14.767Z,9.43
2023-04-05T10:19:47.303Z,11.47
2023-04-05T10:22:16.913Z,10.03
2023-04-05T10:24:50.191Z,8.40
2023-04-05T10:27:23.669Z,8.23
2023-04-05T10:29:54.965Z,10.30
2023-04-05T10:32:29.242Z,9.33
2023-04-05T10:34:59.986Z,10.60
2023-04-05T10:37:32.219Z,8.13
2023-04-05T10:40:03.476Z,9.37
2023-04-05T10:42:36.785Z,8.40
2023-04-05T10:45:05.600Z,9.43
2023-04-05T10:47:36.906Z,7.33
2023-04-05T10:50:06.087Z,7.97
2023-04-05T10:52:34.678Z,7.93
2023-04-05T10:55:04.609Z,7.80
2023-04-05T10:57:34.400Z,9.63
2023-04-05T11:00:03.272Z,8.87
2023-04-05T11:02:32.016Z,8.83
2023-04-05T11:05:05.093Z,9.37
2023-04-05T11:07:44.509Z,8.13
2023-04-05T11:10:17.448Z,8.57
2023-04-05T11:13:04.086Z,6.47
2023-04-05T11:15:34.560Z,9.67
2023-04-05T11:18:06.635Z,7.50
2023-04-05T11:20:51.660Z,7.77
2023-04-05T11:23:21.551Z,9.33
2023-04-05T11:25:52.003Z,7.30
2023-04-05T11:28:27.564Z,10.63
2023-04-05T11:30:58.676Z,7.67
2023-04-05T11:33:40.009Z,9.03
2023-04-05T11:36:09.809Z,5.70
2023-04-05T11:38:38.176Z,13.07
2023-04-05T11:41:13.242Z,7.23
2023-04-05T11:43:43.517Z,7.83
2023-04-05T11:46:13.471Z,7.17
2023-04-05T11:48:42.996Z,7.90
2023-04-05T11:51:12.246Z,10.27
2023-04-05T11:53:40.534Z,9.13
2023-04-05T11:56:09.868Z,9.30
2023-04-05T11:58:38.377Z,9.70
2023-04-05T12:01:07.516Z,8.97
2023-04-05T12:03:37.545Z,9.43
2023-04-05T12:06:07.736Z,14.43
2023-04-05T12:08:42.629Z,6.77
2023-04-05T12:11:11.502Z,6.63
2023-04-05T12:13:40.511Z,10.00
2023-04-05T12:16:09.995Z,7.40
2023-04-05T12:18:40.007Z,8.23
2023-04-05T12:21:09.336Z,12.30
2023-04-05T12:23:38.456Z,11.43
2023-04-05T12:26:08.496Z,5.77
2023-04-05T12:28:52.543Z,11.47
2023-04-05T12:31:35.806Z,8.13
2023-04-05T12:34:05.454Z,12.10
2023-04-05T12:36:33.741Z,9.77
2023-04-05T12:39:02.078Z,10.13
2023-04-05T12:41:30.754Z,8.13
2023-04-05T12:44:01.676Z,8.27
2023-04-05T12:46:40.852Z,6.63
2023-04-05T12:49:12.458Z,8.37
2023-04-05T12:51:44.049Z,7.23
2023-04-05T12:54:14.292Z,9.07
2023-04-05T12:56:42.596Z,8.27
2023-04-05T12:59:11.026Z,11.20
2023-04-05T13:01:39.770Z,8.83
2023-04-05T13:04:15.552Z,9.93
2023-04-05T13:06:47.533Z,7.07
2023-04-05T13:09:16.058Z,10.50
2023-04-05T13:11:44.270Z,7.27
2023-04-05T13:14:12.508Z,7.60
2023-04-05T13:16:40.789Z,7.57
2023-04-05T13:19:09.101Z,7.17
2023-04-05T13:21:37.337Z,7.97
2023-04-05T13:24:07.074Z,7.37
2023-04-05T13:26:35.446Z,8.17
2023-04-05T13:29:03.811Z,7.27
2023-04-05T13:31:33.449Z,9.07
2023-04-05T13:34:01.705Z,8.90
2023-04-05T13:36:29.880Z,8.17
2023-04-05T13:38:58.102Z,9.27
2023-04-05T13:41:27.672Z,8.17
2023-04-05T13:43:55.842Z,5.53
2023-04-05T13:46:24.067Z,7.87
2023-04-05T13:48:52.280Z,9.83
2023-04-05T13:51:20.986Z,10.37
2023-04-05T13:53:49.164Z,11.97
2023-04-05T13:56:17.345Z,12.73
2023-04-05T13:58:46.921Z,10.87
2023-04-05T14:01:15.480Z,10.13
2023-04-05T14:03:43.987Z,6.63
2023-04-05T14:06:12.357Z,12.50
2023-04-05T14:08:40.522Z,8.80
2023-04-05T14:11:08.865Z,9.87
2023-04-05T14:13:37.115Z,6.90
2023-04-05T14:16:07.353Z,8.90
2023-04-05T14:18:35.713Z,10.50
2023-04-05T14:21:04.024Z,9.97
2023-04-05T14:23:32.359Z,9.50
2023-04-05T14:26:00.674Z,9.40
2023-04-05T14:28:28.972Z,10.60
2023-04-05T14:30:58.858Z,10.63
2023-04-05T14:33:28.766Z,17.23
2023-04-05T14:35:57.317Z,7.57
2023-04-05T14:38:25.943Z,8.50
2023-04-05T14:40:54.205Z,10.23
2023-04-05T14:43:22.487Z,10.30
2023-04-05T14:45:50.905Z,8.23
2023-04-05T14:48:19.238Z,9.00
2023-04-05T14:50:48.937Z,9.80
2023-04-05T14:53:17.222Z,10.00
2023-04-05T14:55:45.517Z,10.80
2023-04-05T14:58:14.623Z,10.50
2023-04-05T15:00:43.247Z,9.77
2023-04-05T15:03:12.080Z,10.30
2023-04-05T15:05:40.485Z,9.33
2023-04-05T15:08:10.113Z,10.17
2023-04-05T15:10:38.799Z,11.37
2023-04-05T15:13:07.334Z,10.60
2023-04-05T15:15:36.644Z,7.80
2023-04-05T15:18:05.132Z,8.87
2023-04-05T15:20:33.733Z,8.37
2023-04-05T15:23:02.174Z,9.20
2023-04-05T15:25:32.024Z,9.57
2023-04-05T15:28:04.185Z,12.13
2023-04-05T15:30:34.575Z,8.90
2023-04-05T15:33:02.925Z,11.07
2023-04-05T15:35:31.829Z,9.43
2023-04-05T15:38:01.650Z,9.70
2023-04-05T15:40:30.304Z,12.60
2023-04-05T15:42:59.952Z,9.07
2023-04-05T15:45:28.351Z,8.67
2023-04-05T15:47:56.648Z,11.23
2023-04-05T15:50:24.959Z,11.80
2023-04-05T15:52:53.166Z,10.53
2023-04-05T15:55:21.448Z,9.20
2023-04-05T15:57:54.421Z,9.33
2023-04-05T16:00:24.249Z,11.20
2023-04-05T16:02:56.181Z,9.83
2023-04-05T16:05:25.148Z,10.40
2023-04-05T16:07:53.393Z,8.90
2023-04-05T16:10:21.689Z,10.33
2023-04-05T16:12:50.263Z,10.87
2023-04-05T16:15:18.611Z,8.77
2023-04-05T16:17:48.304Z,9.57
2023-04-05T16:20:17.418Z,7.47
2023-04-05T16:22:46.533Z,9.13
2023-04-05T16:25:14.781Z,8.33
2023-04-05T16:27:42.998Z,9.33
2023-04-05T16:30:11.759Z,10.23
2023-04-05T16:32:40.020Z,8.87
2023-04-05T16:35:10.302Z,9.17
2023-04-05T16:37:38.849Z,9.67
2023-04-05T16:40:07.900Z,11.27
2023-04-05T16:42:36.194Z,8.90
2023-04-05T16:45:04.703Z,8.10
2023-04-05T16:47:33.022Z,10.00
2023-04-05T16:50:01.367Z,11.63
2023-04-05T16:52:31.083Z,9.50
2023-04-05T16:54:59.514Z,9.00
2023-04-05T16:57:27.871Z,8.73
2023-04-05T16:59:56.136Z,9.27
2023-04-05T17:02:24.505Z,12.03
2023-04-05T17:04:54.021Z,8.37
2023-04-05T17:07:22.264Z,10.83
2023-04-05T17:09:52.084Z,11.73
2023-04-05T17:12:20.905Z,13.37
2023-04-05T17:14:49.214Z,11.63
2023-04-05T17:17:17.501Z,9.67
2023-04-05T17:19:45.768Z,16.17
2023-04-05T17:22:15.405Z,12.80
2023-04-05T17:24:43.713Z,10.20
2023-04-05T17:27:13.440Z,9.93
2023-04-05T17:29:41.761Z,9.83
2023-04-05T17:32:10.323Z,10.40
2023-04-05T17:34:38.637Z,10.33
2023-04-05T17:37:06.970Z,9.53
2023-04-05T17:39:35.603Z,10.87
2023-04-05T17:42:03.870Z,10.47
2023-04-05T17:44:33.663Z,12.20
2023-04-05T17:47:09.160Z,10.73
2023-04-05T17:49:38.223Z,15.17
2023-04-05T17:52:08.470Z,12.10
2023-04-05T17:54:37.482Z,11.87
2023-04-05T17:57:05.952Z,9.83
2023-04-05T17:59:36.916Z,12.80
2023-04-05T18:02:05.412Z,11.43
2023-04-05T18:04:33.884Z,13.53
2023-04-05T18:07:02.328Z,10.43
2023-04-05T18:09:32.272Z,13.00
2023-04-05T18:12:01.012Z,10.57
2023-04-05T18:14:30.269Z,10.87
2023-04-05T18:17:00.245Z,11.20
2023-04-05T18:19:28.493Z,15.03
2023-04-05T18:21:56.861Z,11.20
2023-04-05T18:24:25.298Z,10.50
2023-04-05T18:26:53.559Z,11.03
2023-04-05T18:29:27.938Z,10.03
2023-04-05T18:31:56.621Z,12.77
2023-04-05T18:34:26.359Z,10.40
2023-04-05T18:36:54.663Z,12.93
2023-04-05T18:39:25.112Z,10.70
2023-04-05T18:41:55.874Z,10.50
2023-04-05T18:44:24.161Z,12.77
2023-04-05T18:46:52.446Z,11.87
2023-04-05T18:49:21.193Z,13.17
2023-04-05T18:51:50.848Z,11.10
2023-04-05T18:54:19.303Z,13.90
2023-04-05T18:56:47.547Z,12.37
2023-04-05T18:59:16.198Z,14.27
2023-04-05T19:01:44.703Z,13.77
2023-04-05T19:04:13.074Z,15.40
2023-04-05T19:06:41.346Z,13.50
2023-04-05T19:09:11.738Z,13.23
2023-04-05T19:11:40.308Z,12.43
2023-04-05T19:14:08.547Z,13.80
2023-04-05T19:16:37.040Z,11.73
2023-04-05T19:19:06.373Z,12.67
2023-04-05T19:21:34.960Z,12.60
2023-04-05T19:24:03.239Z,14.43
2023-04-05T19:26:33.688Z,10.77
2023-04-05T19:29:01.943Z,16.50
2023-04-05T19:31:30.349Z,11.23
2023-04-05T19:33:58.628Z,11.73
2023-04-05T19:36:27.225Z,12.70
2023-04-05T19:38:55.647Z,16.53
2023-04-05T19:41:24.766Z,15.80
2023-04-05T19:43:54.374Z,14.50
2023-04-05T19:46:22.713Z,16.10
2023-04-05T19:48:52.259Z,14.10
2023-04-05T19:51:22.646Z,15.43
2023-04-05T19:53:51.554Z,13.73
2023-04-05T19:56:21.777Z,15.37
2023-04-05T19:58:51.101Z,14.90
2023-04-05T20:01:33.843Z,13.37
2023-04-05T20:04:02.632Z,14.23
2023-04-05T20:06:31.824Z,13.83
2023-04-05T20:09:03.046Z,17.70
2023-04-05T20:11:31.537Z,14.73
2023-04-05T20:14:01.873Z,17.03
2023-04-05T20:16:32.901Z,13.13
2023-04-05T20:19:03.230Z,12.40
2023-04-05T20:21:32.142Z,16.50
2023-04-05T20:24:00.845Z,15.30
2023-04-05T20:26:29.621Z,13.70
2023-04-05T20:28:58.349Z,15.93
2023-04-05T20:31:28.805Z,14.73
2023-04-05T20:33:59.947Z,16.63
2023-04-05T20:36:33.149Z,11.43
2023-04-05T20:39:01.529Z,15.80
2023-04-05T20:41:30.044Z,13.50
2023-04-05T20:43:58.290Z,14.60
2023-04-05T20:46:27.290Z,13.37
2023-04-05T20:48:58.518Z,16.17
2023-04-05T20:51:28.143Z,13.13
2023-04-05T20:53:56.978Z,13.57
2023-04-05T20:56:25.553Z,13.13
2023-04-05T20:58:54.654Z,15.37
2023-04-05T21:01:23.235Z,14.07
2023-04-05T21:03:53.019Z,12.80
2023-04-05T21:06:21.583Z,12.47
2023-04-05T21:08:51.245Z,16.03
2023-04-05T21:11:19.511Z,12.63
2023-04-05T21:13:47.822Z,13.10
2023-04-05T21:16:16.227Z,15.97
2023-04-05T21:18:44.651Z,13.50
2023-04-05T21:21:12.925Z,12.43
2023-04-05T21:23:41.160Z,13.60
2023-04-05T21:26:10.774Z,11.67
2023-04-05T21:28:39.029Z,12.40
2023-04-05T21:31:07.401Z,13.30
2023-04-05T21:33:35.707Z,15.40
2023-04-05T21:36:03.952Z,13.10
2023-04-05T21:38:32.222Z,15.47
2023-04-05T21:41:00.550Z,14.77
2023-04-05T21:43:30.161Z,13.47
2023-04-05T21:45:58.419Z,14.43
2023-04-05T21:48:27.852Z,15.47
2023-04-05T21:50:56.164Z,13.23
2023-04-05T21:53:25.242Z,11.93
2023-04-05T21:55:53.721Z,16.20
2023-04-05T21:58:21.985Z,12.73
2023-04-05T22:00:51.634Z,11.80
2023-04-05T22:03:19.940Z,13.77
2023-04-05T22:05:48.258Z,12.30
2023-04-05T22:08:16.729Z,12.90
2023-04-05T22:10:45.013Z,12.10
2023-04-05T22:13:13.273Z,14.23
2023-04-05T22:15:41.605Z,15.30
2023-04-05T22:18:11.359Z,17.53
2023-04-05T22:20:39.833Z,17.43
2023-04-05T22:23:08.227Z,13.63
2023-04-05T22:25:36.510Z,13.90
2023-04-05T22:28:04.740Z,13.00
2023-04-05T22:30:43.318Z,15.27
2023-04-05T22:33:14.048Z,14.40
2023-04-05T22:35:42.752Z,12.80
2023-04-05T22:38:11.184Z,12.13
2023-04-05T22:40:39.489Z,10.57
2023-04-05T22:43:09.559Z,15.20
2023-04-05T22:45:38.009Z,13.30
2023-04-05T22:48:07.026Z,11.77
2023-04-05T22:50:36.781Z,13.13
2023-04-05T22:53:05.028Z,15.00
2023-04-05T22:55:33.268Z,11.70
2023-04-05T22:58:01.618Z,13.27
2023-04-05T23:00:29.889Z,15.13
2023-04-05T23:02:58.153Z,13.63
2023-04-05T23:05:26.602Z,13.10
2023-04-05T23:07:56.241Z,12.77
2023-04-05T23:10:24.536Z,12.13
2023-04-05T23:12:52.816Z,14.60
2023-04-05T23:15:21.256Z,12.87
2023-04-05T23:17:49.660Z,11.83
2023-04-05T23:20:18.091Z,12.97
2023-04-05T23:22:46.380Z,10.30
2023-04-05T23:25:16.011Z,12.43
2023-04-05T23:27:44.261Z,11.23
2023-04-05T23:30:12.961Z,11.80
2023-04-05T23:32:41.240Z,13.03
2023-04-05T23:35:09.798Z,18.43
2023-04-05T23:37:38.033Z,13.83
2023-04-05T23:40:06.855Z,14.33
2023-04-05T23:42:36.467Z,13.97
2023-04-05T23:45:07.804Z,13.73
2023-04-05T23:47:37.343Z,14.50
2023-04-05T23:50:06.057Z,15.10
2023-04-05T23:52:34.949Z,11.83
2023-04-05T23:55:03.179Z,13.57
2023-04-05T23:57:31.434Z,12.77
